Time;durP1;ratioP1;P1;durP2;ratioP2;P2;SDS_P1;SDS_P2;PMS_P1;PMS_P2;Temp;Humidity;BMP_temperature;BMP_pressure;BME280_temperature;BME280_humidity;BME280_pressure;Samples;Min_cycle;Max_cycle;Signal;HPM_P1;HPM_P2
2022/05/05 00:01:07;;;;;;;17.75;7.82;;;;;;;10.03;85.94;100899.22;8352011;28;20048;-88
2022/05/05 00:05:08;;;;;;;24.50;9.15;;;;;;;9.89;87.67;100875.25;8383460;28;20048;-88
2022/05/05 00:09:08;;;;;;;22.58;9.48;;;;;;;10.17;87.94;100900.81;8382296;28;20025;-89
2022/05/05 00:14:25;;;;;;;24.42;9.15;;;;;;;10.31;85.75;100892.41;8368012;28;20384;-89
2022/05/05 00:17:32;;;;;;;17.92;8.25;;;;;;;10.35;87.03;100891.16;8343897;28;20048;-88
2022/05/05 00:21:38;;;;;;;20.95;8.32;;;;;;;10.34;87.50;100865.97;8314029;28;20045;-88
2022/05/05 00:25:38;;;;;;;20.27;8.48;;;;;;;10.35;89.55;100883.94;8364740;28;20044;-88
2022/05/05 00:29:39;;;;;;;13.82;6.53;;;;;;;10.31;90.26;100887.84;8342192;28;20037;-89
2022/05/05 00:33:40;;;;;;;16.35;7.30;;;;;;;9.79;93.04;100868.91;8369353;28;20033;-89
2022/05/05 00:37:40;;;;;;;14.02;7.13;;;;;;;9.83;92.79;100891.94;8354302;28;20094;-89
2022/05/05 00:41:44;;;;;;;16.15;7.53;;;;;;;9.68;93.18;100856.28;8315441;28;20057;-89
2022/05/05 00:45:44;;;;;;;18.30;8.57;;;;;;;9.88;90.13;100857.28;8362226;28;20033;-89
2022/05/05 00:49:49;;;;;;;18.33;8.75;;;;;;;9.97;89.84;100853.81;8330348;28;20514;-89
2022/05/05 00:53:49;;;;;;;27.45;8.60;;;;;;;10.07;89.76;100884.53;8316514;28;20041;-89
2022/05/05 00:57:50;;;;;;;18.48;8.38;;;;;;;9.91;89.28;100824.63;8297679;28;20037;-89
2022/05/05 01:01:50;;;;;;;25.48;11.02;;;;;;;10.22;89.68;100880.56;8318504;28;20034;-89
2022/05/05 01:05:51;;;;;;;20.33;9.00;;;;;;;9.92;90.27;100837.19;8313704;28;20037;-89
2022/05/05 01:09:52;;;;;;;24.52;9.82;;;;;;;9.71;91.20;100828.16;8360851;28;20055;-89
2022/05/05 01:13:52;;;;;;;22.75;9.20;;;;;;;9.52;94.53;100871.16;8346571;28;20392;-89
2022/05/05 01:17:53;;;;;;;23.15;10.20;;;;;;;9.56;94.97;100888.81;8362568;28;20124;-89
2022/05/05 01:21:54;;;;;;;21.08;9.20;;;;;;;9.36;95.18;100876.06;8348094;28;20403;-89
2022/05/05 01:30:16;;;;;;;20.70;8.57;;;;;;;9.37;96.65;100900.22;8384237;28;20029;-89
2022/05/05 01:34:17;;;;;;;19.17;8.55;;;;;;;9.38;95.88;100903.78;8379086;28;20044;-89
2022/05/05 01:38:21;;;;;;;19.70;9.77;;;;;;;9.38;94.85;100896.56;8363005;28;20378;-89
2022/05/05 01:42:22;;;;;;;26.80;9.30;;;;;;;9.52;95.09;100903.53;8325752;28;20041;-89
2022/05/05 01:46:22;;;;;;;20.08;8.50;;;;;;;9.22;96.54;100879.03;8361991;28;20037;-89
2022/05/05 01:50:23;;;;;;;24.63;9.32;;;;;;;9.17;99.73;100892.00;8378674;28;20040;-89
2022/05/05 01:54:23;;;;;;;24.27;8.70;;;;;;;9.52;98.78;100911.63;8367421;28;20492;-89
2022/05/05 01:58:23;;;;;;;21.40;9.50;;;;;;;9.07;100.00;100889.22;8389720;28;20043;-89
2022/05/05 02:02:24;;;;;;;24.00;8.95;;;;;;;8.98;100.00;100880.97;8345186;28;20052;-89
2022/05/05 02:06:24;;;;;;;24.38;8.75;;;;;;;9.49;99.79;100920.81;8346803;28;20056;-89
2022/05/05 02:10:28;;;;;;;22.77;9.18;;;;;;;9.62;99.60;100921.56;8377317;28;20032;-88
2022/05/05 02:14:28;;;;;;;26.65;8.85;;;;;;;9.48;100.00;100929.03;8353937;28;20055;-88
2022/05/05 02:18:28;;;;;;;26.00;9.75;;;;;;;9.49;100.00;100923.53;8290265;28;20040;-88
2022/05/05 02:22:29;;;;;;;24.05;9.30;;;;;;;9.83;98.53;100902.75;8320398;28;20082;-88
2022/05/05 02:26:29;;;;;;;21.38;9.82;;;;;;;9.82;100.00;100933.41;8351362;28;20101;-88
2022/05/05 02:30:30;;;;;;;21.73;9.43;;;;;;;9.81;100.00;100893.91;8335218;28;20032;-88
2022/05/05 02:34:31;;;;;;;21.45;10.15;;;;;;;9.79;100.00;100901.28;8377784;28;20041;-88
2022/05/05 02:38:47;;;;;;;31.20;11.35;;;;;;;10.16;100.00;100920.72;8361748;28;20037;-88
2022/05/05 02:42:48;;;;;;;20.23;10.27;;;;;;;10.12;100.00;100913.88;8341686;28;20501;-88
2022/05/05 02:46:48;;;;;;;28.80;10.80;;;;;;;10.38;100.00;100926.91;8367160;28;20395;-88
2022/05/05 02:50:49;;;;;;;23.88;10.82;;;;;;;10.47;100.00;100926.13;8361170;28;20067;-88
2022/05/05 02:54:51;;;;;;;22.40;11.85;;;;;;;10.53;100.00;100920.22;8361066;28;20021;-89
2022/05/05 02:58:53;;;;;;;22.83;11.15;;;;;;;10.42;100.00;100912.13;8350168;28;20024;-89
2022/05/05 03:02:53;;;;;;;22.95;11.55;;;;;;;10.24;100.00;100929.91;8367859;28;20090;-89
2022/05/05 03:06:54;;;;;;;27.27;10.32;;;;;;;10.13;100.00;100921.84;8350900;28;20041;-89
2022/05/05 03:10:54;;;;;;;22.17;11.55;;;;;;;10.34;100.00;100927.28;8339893;28;20029;-89
2022/05/05 03:15:47;;;;;;;28.23;11.18;;;;;;;10.21;99.20;100935.56;8320435;28;20043;-89
2022/05/05 03:24:57;;;;;;;25.60;11.82;;;;;;;9.87;99.32;100879.91;8319595;28;20052;-90
2022/05/05 03:29:38;;;;;;;25.02;10.93;;;;;;;9.88;100.00;100889.69;8281064;28;20046;-90
2022/05/05 03:33:39;;;;;;;36.17;15.52;;;;;;;10.12;100.00;100925.53;8251973;28;20038;-90
2022/05/05 03:37:39;;;;;;;33.70;15.27;;;;;;;10.36;98.65;100911.78;8274265;28;20121;-90
2022/05/05 03:41:40;;;;;;;39.92;15.63;;;;;;;9.96;100.00;100898.03;8305449;28;20132;-90
2022/05/05 03:45:40;;;;;;;33.80;15.05;;;;;;;10.06;100.00;100915.19;8341698;28;20081;-90
2022/05/05 03:49:41;;;;;;;32.10;15.07;;;;;;;9.99;99.92;100919.38;8371250;28;20473;-90
2022/05/05 03:53:41;;;;;;;29.52;13.82;;;;;;;9.84;100.00;100947.66;8345402;28;20037;-89
2022/05/05 03:57:42;;;;;;;32.03;13.25;;;;;;;9.60;100.00;100944.25;8386727;28;20480;-90
2022/05/05 04:01:42;;;;;;;31.95;14.63;;;;;;;9.32;100.00;100924.03;8379700;28;20041;-90
2022/05/05 04:05:42;;;;;;;29.85;13.45;;;;;;;9.37;100.00;100915.56;8352656;28;20070;-89
2022/05/05 04:09:43;;;;;;;31.65;15.15;;;;;;;9.55;100.00;100958.13;8358715;28;20365;-90
2022/05/05 04:13:43;;;;;;;31.20;14.25;;;;;;;9.46;100.00;100961.56;8347914;28;20044;-90
2022/05/05 04:17:44;;;;;;;36.13;15.77;;;;;;;9.17;100.00;100935.16;8355568;28;20036;-90
2022/05/05 04:21:44;;;;;;;34.67;16.15;;;;;;;9.47;100.00;100962.41;8365102;28;20033;-90
2022/05/05 04:25:46;;;;;;;34.80;14.82;;;;;;;9.66;100.00;100976.16;8354132;28;20033;-90
2022/05/05 04:29:48;;;;;;;37.08;15.43;;;;;;;9.85;100.00;100960.16;8352914;28;20037;-90
2022/05/05 04:33:49;;;;;;;39.13;15.43;;;;;;;9.79;100.00;100972.34;8345133;28;20436;-91
2022/05/05 04:37:49;;;;;;;34.80;16.77;;;;;;;9.68;100.00;100929.16;8331786;28;20058;-90
2022/05/05 04:41:50;;;;;;;39.58;17.08;;;;;;;10.13;98.90;100981.28;8323258;28;20048;-90
2022/05/05 04:45:53;;;;;;;40.08;17.23;;;;;;;9.99;99.94;100981.50;8342888;28;20037;-90
2022/05/05 04:49:56;;;;;;;32.38;15.80;;;;;;;9.75;100.00;100965.47;8354943;28;20040;-90
2022/05/05 04:54:00;;;;;;;36.65;15.13;;;;;;;9.77;100.00;100958.13;8345401;28;20466;-90
2022/05/05 04:58:00;;;;;;;30.67;14.55;;;;;;;10.29;98.15;100986.25;8341561;28;20029;-91
2022/05/05 05:02:02;;;;;;;32.92;15.00;;;;;;;10.27;97.34;100966.63;8359225;28;20692;-90
2022/05/05 05:06:04;;;;;;;35.75;14.73;;;;;;;10.49;98.06;100994.41;8350952;28;20396;-90
2022/05/05 05:10:05;;;;;;;32.58;16.65;;;;;;;10.61;96.62;100966.34;8294503;28;20059;-92
2022/05/05 05:14:06;;;;;;;37.65;16.17;;;;;;;10.87;94.73;100983.94;8368765;28;20040;-92
2022/05/05 05:18:09;;;;;;;35.03;16.60;;;;;;;10.93;95.07;100959.06;8337418;28;20044;-93
2022/05/05 05:22:10;;;;;;;35.45;14.73;;;;;;;11.11;93.45;100956.63;8334913;28;20079;-92
2022/05/05 05:26:10;;;;;;;32.45;15.02;;;;;;;11.28;93.58;100986.63;8352439;28;20032;-91
2022/05/05 05:30:13;;;;;;;35.45;15.38;;;;;;;11.37;94.35;100971.41;8306275;28;20043;-92
2022/05/05 05:34:13;;;;;;;36.70;15.77;;;;;;;11.86;94.19;101007.59;8330567;28;20106;-91
2022/05/05 05:38:18;;;;;;;39.67;15.13;;;;;;;12.17;92.15;101011.13;8341686;28;20039;-92
2022/05/05 05:42:22;;;;;;;47.55;17.77;;;;;;;12.44;89.93;100994.22;8340667;28;20153;-91
2022/05/05 05:46:22;;;;;;;47.13;16.52;;;;;;;12.43;87.34;100970.78;8360247;28;20437;-92
2022/05/05 05:50:23;;;;;;;56.90;18.02;;;;;;;12.60;87.63;101002.66;8345037;28;20032;-92
2022/05/05 05:54:23;;;;;;;49.67;16.88;;;;;;;12.92;88.70;101009.50;8384911;28;20055;-91
2022/05/05 05:58:24;;;;;;;44.95;18.30;;;;;;;13.02;88.79;101010.38;8363812;28;20197;-92
2022/05/05 06:03:57;;;;;;;37.92;16.35;;;;;;;13.31;87.44;101021.19;8388401;28;20040;-89
2022/05/05 06:06:45;;;;;;;35.00;16.60;;;;;;;13.51;85.09;101023.72;8361378;28;20032;-92
2022/05/05 06:10:45;;;;;;;55.72;18.65;;;;;;;13.73;82.46;101004.34;8363468;28;20120;-91
2022/05/05 06:14:46;;;;;;;40.60;16.92;;;;;;;14.01;81.58;100996.22;8372433;28;20029;-92
2022/05/05 06:18:47;;;;;;;44.70;17.75;;;;;;;13.98;81.81;101005.53;8366990;28;20032;-92
2022/05/05 06:22:50;;;;;;;38.22;16.92;;;;;;;14.29;81.04;101031.44;8391488;28;20415;-91
2022/05/05 06:26:50;;;;;;;46.50;17.30;;;;;;;14.29;79.43;101006.97;8336394;28;20067;-92
2022/05/05 06:30:51;;;;;;;41.30;17.52;;;;;;;14.44;79.15;101005.44;8342810;28;20088;-90
2022/05/05 06:35:01;;;;;;;40.00;17.17;;;;;;;14.37;78.06;101007.06;8365238;28;20495;-91
2022/05/05 06:39:04;;;;;;;45.58;17.88;;;;;;;13.97;77.74;101017.44;8402610;28;20039;-90
2022/05/05 06:43:29;;;;;;;40.92;17.85;;;;;;;14.12;77.69;101017.78;8393019;28;20037;-90
2022/05/05 06:47:33;;;;;;;35.50;17.27;;;;;;;14.36;76.32;101010.78;8329932;28;20036;-91
2022/05/05 06:51:45;;;;;;;41.67;18.63;;;;;;;14.42;75.97;101012.88;8300279;28;20040;-90
2022/05/05 06:55:58;;;;;;;47.20;18.40;;;;;;;15.26;77.56;101045.03;8350429;28;20036;-91
2022/05/05 07:00:06;;;;;;;42.40;17.65;;;;;;;14.88;73.95;101029.03;8340917;28;20040;-91
2022/05/05 07:05:27;;;;;;;40.95;17.00;;;;;;;14.84;73.62;101022.19;8358164;28;20497;-91
2022/05/05 07:12:58;;;;;;;43.20;17.23;;;;;;;15.50;73.49;101028.88;8285483;28;20037;-90
2022/05/05 07:16:58;;;;;;;33.65;15.82;;;;;;;15.65;71.51;101019.13;8269806;28;20053;-91
2022/05/05 07:20:59;;;;;;;42.72;17.02;;;;;;;15.97;70.58;101023.91;8265689;28;20034;-91
2022/05/05 07:25:03;;;;;;;36.80;15.13;;;;;;;16.42;70.71;101056.31;8282059;28;20030;-91
2022/05/05 07:29:07;;;;;;;37.90;15.05;;;;;;;16.31;68.40;101064.81;8281785;28;20033;-91
2022/05/05 07:33:07;;;;;;;36.47;16.65;;;;;;;16.07;68.22;101029.25;8294531;28;20112;-91
2022/05/05 07:37:08;;;;;;;33.72;15.60;;;;;;;16.51;68.88;101066.28;8303603;28;20036;-91
2022/05/05 07:41:08;;;;;;;36.70;15.15;;;;;;;16.37;69.72;101058.69;8289306;28;20513;-91
2022/05/05 07:45:46;;;;;;;38.20;14.88;;;;;;;16.88;68.63;101091.31;8359662;28;20035;-90
2022/05/05 07:50:14;;;;;;;32.78;14.48;;;;;;;17.29;64.79;101090.34;8329173;28;20044;-91
2022/05/05 07:58:18;;;;;;;33.33;13.80;;;;;;;17.37;64.45;101101.28;8291107;28;20060;-61
2022/05/05 08:02:19;;;;;;;32.58;11.93;;;;;;;17.46;64.16;101098.44;8300292;28;20030;-61
2022/05/05 08:06:19;;;;;;;34.33;12.70;;;;;;;17.59;64.31;101100.66;8303606;28;20056;-61
2022/05/05 08:10:20;;;;;;;34.67;13.68;;;;;;;17.25;64.41;101099.91;8314697;28;20037;-61
2022/05/05 08:14:21;;;;;;;27.23;13.00;;;;;;;17.41;64.53;101099.91;8300779;28;20112;-61
2022/05/05 08:18:21;;;;;;;35.40;13.35;;;;;;;17.32;64.54;101095.47;8292385;28;20243;-61
2022/05/05 08:22:21;;;;;;;32.17;13.60;;;;;;;17.36;63.35;101096.88;8274456;28;20054;-61
2022/05/05 08:30:43;;;;;;;25.67;11.10;;;;;;;17.60;60.80;101113.31;8283528;28;20042;-60
2022/05/05 08:34:44;;;;;;;33.58;10.95;;;;;;;17.93;59.20;101105.94;8310297;28;20026;-61
2022/05/05 08:38:46;;;;;;;18.10;9.80;;;;;;;18.30;58.97;101109.75;8295620;28;20095;-61
2022/05/05 08:42:46;;;;;;;21.23;9.38;;;;;;;18.24;57.25;101121.41;8301325;28;20764;-61
2022/05/05 08:46:48;;;;;;;21.77;9.93;;;;;;;18.16;59.69;101117.84;8306425;28;20457;-61
2022/05/05 08:50:55;;;;;;;27.40;11.70;;;;;;;18.31;57.94;101119.69;8295308;28;20038;-61
2022/05/05 08:54:55;;;;;;;21.77;11.43;;;;;;;18.54;56.91;101122.56;8294589;28;20041;-61
2022/05/05 08:58:55;;;;;;;28.52;11.98;;;;;;;18.10;57.86;101122.13;8279747;28;20030;-61
2022/05/05 09:03:00;;;;;;;27.05;12.90;;;;;;;18.34;57.68;101115.75;8294879;28;20061;-61
2022/05/05 09:07:00;;;;;;;26.95;13.27;;;;;;;18.53;57.68;101135.38;8293017;28;20113;-61
2022/05/05 09:11:05;;;;;;;28.80;13.15;;;;;;;19.06;58.47;101129.16;8294762;28;20045;-61
2022/05/05 09:15:09;;;;;;;27.60;13.30;;;;;;;19.65;56.07;101130.28;8293322;28;20379;-61
2022/05/05 09:19:10;;;;;;;26.67;14.00;;;;;;;19.72;57.71;101114.78;8292516;28;20117;-61
2022/05/05 09:24:43;;;;;;;33.05;13.52;;;;;;;19.76;56.53;101121.63;8287941;28;20041;-61
2022/05/05 09:28:19;;;;;;;31.45;15.82;;;;;;;19.52;55.63;101124.56;8293813;28;20041;-62
2022/05/05 09:32:20;;;;;;;31.17;16.10;;;;;;;19.67;54.30;101128.22;8293741;28;20030;-61
2022/05/05 09:36:28;;;;;;;30.40;15.77;;;;;;;19.97;55.34;101128.09;8286923;28;20026;-62
2022/05/05 09:40:28;;;;;;;29.60;14.52;;;;;;;20.30;57.57;101125.91;8293767;28;20092;-60
2022/05/05 09:44:29;;;;;;;23.55;14.32;;;;;;;20.92;53.60;101128.03;8275080;28;20038;-60
2022/05/05 09:48:29;;;;;;;33.73;14.13;;;;;;;21.46;53.86;101130.41;8285128;28;20038;-61
2022/05/05 09:57:55;;;;;;;25.67;12.60;;;;;;;25.17;48.06;101133.47;8289035;28;20052;-61
2022/05/05 10:01:21;;;;;;;26.98;10.98;;;;;;;24.88;45.33;101144.03;8291436;28;20046;-61
2022/05/05 10:05:23;;;;;;;24.05;12.48;;;;;;;25.14;45.69;101142.22;8281279;28;20038;-62
2022/05/05 10:09:24;;;;;;;26.38;12.07;;;;;;;25.70;44.43;101151.50;8279499;28;20125;-61
2022/05/05 10:13:26;;;;;;;21.98;11.60;;;;;;;27.59;44.19;101138.41;8277959;28;20054;-61
2022/05/05 10:17:28;;;;;;;25.25;12.38;;;;;;;28.36;41.38;101138.25;8286815;28;20070;-61
2022/05/05 10:25:52;;;;;;;22.95;11.80;;;;;;;27.58;41.98;101145.06;8331742;27;20400;-60
2022/05/05 10:29:53;;;;;;;26.77;11.45;;;;;;;27.73;41.39;101140.78;8301942;28;20041;-61
2022/05/05 10:34:03;;;;;;;22.65;10.90;;;;;;;27.38;43.11;101138.97;8318034;28;20487;-60
2022/05/05 10:38:03;;;;;;;19.73;10.80;;;;;;;28.12;41.89;101136.53;8318173;28;20065;-60
2022/05/05 10:51:04;;;;;;;18.20;10.63;;;;;;;25.73;42.82;101126.97;8395028;27;20476;-61
2022/05/05 10:55:23;;;;;;;19.48;10.27;;;;;;;25.50;42.20;101137.81;8399355;28;20430;-61
2022/05/05 10:59:23;;;;;;;22.17;9.90;;;;;;;25.36;42.50;101138.09;8385682;28;20036;-61
2022/05/05 11:03:24;;;;;;;20.60;9.87;;;;;;;26.40;42.17;101128.97;8415221;28;20518;-60
2022/05/05 11:07:30;;;;;;;21.25;9.32;;;;;;;25.93;42.76;101138.78;8413424;28;20283;-61
2022/05/05 11:11:46;;;;;;;21.45;9.98;;;;;;;25.65;43.01;101135.59;8384010;28;20072;-61
2022/05/05 11:21:33;;;;;;;20.48;10.27;;;;;;;25.93;42.59;101127.69;8378939;28;20039;-61
2022/05/05 11:24:41;;;;;;;19.20;10.43;;;;;;;23.04;45.88;101135.84;8382551;28;20411;-61
2022/05/05 11:28:41;;;;;;;30.00;11.40;;;;;;;21.23;48.78;101130.56;8368134;28;20036;-62
2022/05/05 11:32:44;;;;;;;22.05;11.65;;;;;;;22.16;48.03;101129.34;8375469;28;20528;-60
2022/05/05 11:36:46;;;;;;;22.90;9.88;;;;;;;24.85;44.01;101122.34;8343909;28;20041;-62
2022/05/05 11:40:47;;;;;;;14.30;8.68;;;;;;;25.98;42.07;101129.81;8365216;28;20039;-62
2022/05/05 11:44:48;;;;;;;20.80;10.33;;;;;;;28.03;41.95;101121.31;8357562;28;20061;-61
2022/05/05 11:48:54;;;;;;;22.50;10.18;;;;;;;28.41;40.17;101130.00;8348838;28;20272;-61
2022/05/05 11:52:54;;;;;;;13.18;8.32;;;;;;;27.42;40.20;101135.50;8344018;28;20044;-61
2022/05/05 11:56:55;;;;;;;13.10;7.82;;;;;;;27.21;42.48;101135.09;8381714;28;20090;-62
2022/05/05 12:01:42;;;;;;;19.23;8.68;;;;;;;24.55;44.59;101129.41;8369184;28;20145;-62
2022/05/05 12:05:32;;;;;;;17.00;9.15;;;;;;;24.39;46.62;101138.16;8345901;28;20041;-62
2022/05/05 12:09:33;;;;;;;16.45;9.15;;;;;;;23.65;47.30;101133.03;8322152;28;20040;-61
2022/05/05 12:13:37;;;;;;;18.30;9.55;;;;;;;22.76;47.33;101129.56;8321440;28;20167;-62
2022/05/05 12:17:42;;;;;;;17.63;10.10;;;;;;;22.78;48.87;101132.94;8328033;28;20042;-62
2022/05/05 12:21:58;;;;;;;21.25;11.32;;;;;;;22.64;48.84;101127.59;8321559;28;20033;-62
2022/05/05 12:26:00;;;;;;;22.02;11.43;;;;;;;22.38;50.06;101122.72;8323029;28;20033;-61
2022/05/05 12:30:01;;;;;;;18.60;8.80;;;;;;;22.74;49.01;101131.66;8330929;28;20132;-61
2022/05/05 12:34:02;;;;;;;21.42;9.55;;;;;;;22.00;49.80;101129.66;8308666;28;20578;-61
2022/05/05 12:38:04;;;;;;;19.75;11.23;;;;;;;21.14;50.75;101131.75;8335649;28;20461;-61
2022/05/05 12:42:04;;;;;;;24.70;11.02;;;;;;;20.43;52.08;101131.63;8372142;28;20215;-61
2022/05/05 12:46:05;;;;;;;15.88;9.98;;;;;;;20.40;53.08;101127.34;8317735;28;20041;-61
2022/05/05 12:50:24;;;;;;;19.05;10.73;;;;;;;20.52;53.14;101131.31;8313591;28;20573;-62
2022/05/05 12:59:48;;;;;;;25.80;11.77;;;;;;;20.69;52.54;101126.47;8347065;28;20398;-60
2022/05/05 13:03:07;;;;;;;18.88;10.98;;;;;;;21.22;53.60;101126.97;8299747;28;20151;-61
2022/05/05 13:07:07;;;;;;;21.27;11.00;;;;;;;20.83;51.81;101122.88;8319028;28;20494;-60
2022/05/05 13:11:08;;;;;;;18.65;10.77;;;;;;;20.80;52.82;101135.06;8307455;28;20425;-61
2022/05/05 13:15:08;;;;;;;24.83;10.63;;;;;;;21.24;52.88;101127.63;8319860;28;20115;-61
2022/05/05 13:19:09;;;;;;;17.13;10.57;;;;;;;21.49;52.31;101135.47;8313353;28;20420;-61
2022/05/05 13:23:09;;;;;;;17.88;10.75;;;;;;;21.69;53.68;101126.41;8324955;28;20037;-61
2022/05/05 13:27:10;;;;;;;19.40;10.00;;;;;;;21.67;51.25;101128.47;8313043;28;20089;-61
2022/05/05 13:31:10;;;;;;;25.42;12.02;;;;;;;21.06;51.05;101129.97;8333515;28;20049;-61
2022/05/05 13:35:11;;;;;;;19.58;10.90;;;;;;;21.36;53.23;101119.72;8320594;28;20289;-60
2022/05/05 13:39:12;;;;;;;17.63;9.85;;;;;;;21.22;51.96;101134.34;8318139;28;20517;-61
2022/05/05 13:43:12;;;;;;;18.00;10.07;;;;;;;20.82;51.88;101127.50;8317435;28;20102;-60
2022/05/05 13:47:14;;;;;;;15.43;9.10;;;;;;;21.01;52.69;101132.41;8296105;28;20045;-61
2022/05/05 13:51:14;;;;;;;16.35;9.35;;;;;;;20.90;51.56;101123.78;8313133;28;20087;-61
2022/05/05 13:55:15;;;;;;;18.75;9.60;;;;;;;20.64;51.67;101128.94;8328987;28;20044;-59
2022/05/05 13:59:15;;;;;;;12.82;8.45;;;;;;;20.47;51.57;101124.69;8335950;28;20053;-60
2022/05/05 14:03:16;;;;;;;15.98;8.52;;;;;;;20.64;51.55;101126.19;8323582;28;20053;-60
2022/05/05 14:12:10;;;;;;;17.42;9.05;;;;;;;20.44;51.74;101116.81;8326628;28;20089;-60
2022/05/05 14:12:37;;;;;;;17.77;8.48;;;;;;;20.78;53.01;101114.31;8313892;28;20041;-61
2022/05/05 14:15:58;;;;;;;13.75;8.63;;;;;;;20.64;52.99;101117.94;8313559;28;20043;-61
2022/05/05 14:19:58;;;;;;;19.45;9.05;;;;;;;20.92;53.46;101110.72;8323278;28;20046;-61
2022/05/05 14:24:00;;;;;;;16.42;8.20;;;;;;;21.19;52.66;101108.09;8300154;28;20041;-61
2022/05/05 14:28:01;;;;;;;17.60;8.57;;;;;;;20.87;51.47;101107.69;8298156;28;20590;-61
2022/05/05 14:32:01;;;;;;;16.67;8.82;;;;;;;21.05;51.55;101111.72;8305179;28;20559;-61
2022/05/05 14:36:02;;;;;;;16.58;8.80;;;;;;;20.78;51.59;101114.31;8304726;28;20579;-60
2022/05/05 14:40:03;;;;;;;16.02;8.00;;;;;;;20.75;51.59;101121.06;8330406;28;20037;-61
2022/05/05 14:44:04;;;;;;;15.02;7.82;;;;;;;20.83;51.84;101114.63;8309515;28;20346;-61
2022/05/05 14:48:06;;;;;;;14.10;8.00;;;;;;;20.70;51.67;101111.69;8312441;28;20103;-61
2022/05/05 14:52:07;;;;;;;16.15;7.00;;;;;;;20.62;51.58;101117.28;8319987;28;20115;-61
2022/05/05 14:56:08;;;;;;;10.70;6.85;;;;;;;20.68;51.55;101113.78;8312059;28;20029;-61
2022/05/05 15:00:08;;;;;;;14.43;6.50;;;;;;;20.64;50.57;101107.81;8318370;28;20041;-61
2022/05/05 15:04:09;;;;;;;17.45;7.00;;;;;;;20.51;49.91;101112.28;8320271;28;20596;-61
2022/05/05 15:08:09;;;;;;;15.43;6.20;;;;;;;20.76;49.91;101098.03;8338711;28;20041;-61
2022/05/05 15:12:10;;;;;;;13.55;6.88;;;;;;;20.65;50.60;101115.00;8314166;28;20319;-63
2022/05/05 15:16:10;;;;;;;10.85;7.78;;;;;;;20.83;50.08;101103.63;8333560;28;20351;-62
2022/05/05 15:20:11;;;;;;;15.70;7.50;;;;;;;21.04;50.61;101103.69;8318704;28;20041;-63
2022/05/05 15:24:12;;;;;;;17.52;8.63;;;;;;;20.89;50.43;101105.59;8301665;28;20057;-63
2022/05/05 15:28:12;;;;;;;15.77;7.53;;;;;;;20.84;49.90;101114.44;8313985;28;20037;-62
2022/05/05 15:32:13;;;;;;;13.15;8.73;;;;;;;20.71;49.71;101113.41;8316199;28;20536;-61
2022/05/05 15:36:13;;;;;;;14.97;8.03;;;;;;;20.49;49.69;101119.88;8322385;28;20124;-62
2022/05/05 15:40:15;;;;;;;10.43;6.40;;;;;;;20.52;49.82;101116.75;8329727;28;20291;-60
2022/05/05 15:44:16;;;;;;;8.77;5.65;;;;;;;20.60;49.12;101108.38;8335538;28;20397;-63
2022/05/05 15:48:17;;;;;;;10.63;5.30;;;;;;;20.75;48.37;101103.72;8341469;28;20072;-62
2022/05/05 15:52:18;;;;;;;8.68;4.65;;;;;;;20.61;48.77;101118.31;8324082;28;20045;-62
2022/05/05 15:56:19;;;;;;;11.73;6.28;;;;;;;20.19;50.40;101126.38;8348727;28;20113;-62
2022/05/05 16:00:20;;;;;;;11.55;5.53;;;;;;;20.29;49.20;101119.56;8335430;28;20053;-62
2022/05/05 16:04:21;;;;;;;11.90;5.93;;;;;;;20.30;50.59;101120.41;8317541;28;20049;-62
2022/05/05 16:08:22;;;;;;;8.00;5.28;;;;;;;20.38;50.70;101117.59;8337802;28;20048;-62
2022/05/05 16:12:23;;;;;;;8.38;4.97;;;;;;;20.36;50.57;101125.16;8338770;28;20038;-62
2022/05/05 16:16:23;;;;;;;16.05;6.22;;;;;;;20.10;49.33;101113.75;8330651;28;20126;-62
2022/05/05 16:20:24;;;;;;;10.90;5.60;;;;;;;20.05;49.51;101121.69;8346090;28;20041;-61
2022/05/05 16:30:19;;;;;;;12.23;6.15;;;;;;;19.94;49.60;101125.72;8335323;28;20497;-61
2022/05/05 16:33:05;;;;;;;11.55;5.45;;;;;;;20.21;50.18;101121.53;8341152;28;20049;-62
2022/05/05 16:37:06;;;;;;;12.00;5.97;;;;;;;20.04;50.11;101122.72;8338789;28;20175;-61
2022/05/05 16:41:06;;;;;;;11.52;7.07;;;;;;;19.94;50.05;101124.91;8342992;28;20045;-61
2022/05/05 16:45:09;;;;;;;10.57;6.75;;;;;;;19.93;49.86;101134.16;8333192;28;20041;-62
2022/05/05 16:49:09;;;;;;;11.57;6.13;;;;;;;20.00;50.44;101137.88;8338190;28;20076;-61
2022/05/05 16:53:10;;;;;;;12.85;7.18;;;;;;;19.86;50.71;101133.19;8301464;28;20042;-60
2022/05/05 16:57:10;;;;;;;19.10;8.02;;;;;;;19.84;51.13;101129.78;8298529;28;20452;-62
2022/05/05 17:01:14;;;;;;;10.02;7.53;;;;;;;19.84;50.83;101129.78;8303807;28;20045;-61
2022/05/05 17:05:14;;;;;;;18.80;8.07;;;;;;;19.84;51.32;101130.63;8298115;28;20490;-60
2022/05/05 17:09:15;;;;;;;11.32;6.82;;;;;;;19.74;52.67;101137.41;8306607;28;20045;-61
2022/05/05 17:13:15;;;;;;;12.20;6.65;;;;;;;19.62;55.11;101130.66;8305015;28;20057;-60
2022/05/05 17:17:18;;;;;;;11.90;6.63;;;;;;;19.51;56.31;101133.84;8304965;28;20053;-61
2022/05/05 17:21:18;;;;;;;12.10;6.43;;;;;;;19.37;57.42;101138.22;8324873;28;20207;-61
2022/05/05 17:25:18;;;;;;;13.27;7.00;;;;;;;19.40;57.50;101138.69;8326005;28;20049;-61
2022/05/05 17:29:19;;;;;;;17.30;6.93;;;;;;;19.39;57.78;101142.50;8327054;28;20192;-61
2022/05/05 17:33:19;;;;;;;12.15;6.50;;;;;;;19.32;58.24;101147.00;8330220;28;20287;-61
2022/05/05 17:37:20;;;;;;;15.13;6.63;;;;;;;19.28;58.62;101145.63;8316601;28;20546;-61
2022/05/05 17:41:21;;;;;;;15.37;6.77;;;;;;;19.04;60.72;101148.53;8332571;28;20724;-61
2022/05/05 17:50:43;;;;;;;12.85;5.15;;;;;;;19.10;57.69;101150.53;8349853;28;20747;-61
2022/05/05 17:54:03;;;;;;;9.85;4.88;;;;;;;18.99;57.67;101159.16;8344387;28;20037;-61
2022/05/05 17:58:04;;;;;;;12.63;4.88;;;;;;;18.91;57.20;101164.66;8328057;28;20037;-61
2022/05/05 18:02:04;;;;;;;10.32;4.80;;;;;;;18.83;57.21;101159.25;8326182;28;20037;-61
2022/05/05 18:06:10;;;;;;;8.60;4.90;;;;;;;18.67;57.33;101164.75;8320869;28;20064;-62
2022/05/05 18:10:10;;;;;;;14.02;5.30;;;;;;;18.54;57.71;101172.69;8335560;28;20659;-61
2022/05/05 18:14:11;;;;;;;11.00;4.60;;;;;;;18.45;57.71;101181.13;8342356;28;20063;-62
2022/05/05 18:18:11;;;;;;;10.33;4.87;;;;;;;18.30;58.08;101186.41;8316697;28;20081;-62
2022/05/05 18:22:14;;;;;;;9.45;4.65;;;;;;;18.21;58.25;101192.91;8303471;28;20280;-62
2022/05/05 18:26:15;;;;;;;11.63;4.30;;;;;;;18.11;58.69;101192.25;8294833;28;20045;-61
2022/05/05 18:30:15;;;;;;;8.95;4.65;;;;;;;17.99;59.29;101199.09;8301376;28;20076;-62
2022/05/05 18:34:16;;;;;;;10.38;4.60;;;;;;;17.88;59.59;101202.19;8358625;28;20052;-61
2022/05/05 18:38:16;;;;;;;13.63;4.43;;;;;;;17.77;60.08;101205.25;8347822;28;20079;-61
2022/05/05 18:42:17;;;;;;;7.93;5.75;;;;;;;17.54;61.89;101215.16;8307172;28;20045;-61
2022/05/05 18:46:18;;;;;;;13.55;5.72;;;;;;;17.46;62.38;101209.66;8301180;28;20044;-61
2022/05/05 18:50:18;;;;;;;13.13;6.10;;;;;;;17.43;62.76;101218.22;8302875;28;20099;-61
2022/05/05 18:54:18;;;;;;;13.97;6.37;;;;;;;17.25;63.60;101218.31;8305040;28;20539;-62
2022/05/05 18:58:19;;;;;;;9.90;5.93;;;;;;;17.12;64.24;101220.66;8310605;28;20287;-62
2022/05/05 19:02:19;;;;;;;12.10;5.55;;;;;;;16.76;66.52;101223.72;8303131;28;20045;-62
2022/05/05 19:06:20;;;;;;;14.67;5.80;;;;;;;16.57;68.00;101223.97;8312116;28;20044;-61
2022/05/05 19:10:20;;;;;;;11.98;6.03;;;;;;;16.27;69.81;101235.34;8305151;28;20307;-61
2022/05/05 19:14:21;;;;;;;14.93;6.70;;;;;;;16.32;68.97;101236.59;8309323;28;20114;-61
2022/05/05 19:18:21;;;;;;;17.15;7.75;;;;;;;16.30;68.90;101256.84;8312065;28;20438;-61
2022/05/05 19:22:26;;;;;;;18.15;7.25;;;;;;;16.22;69.40;101259.53;8319339;28;20050;-62
2022/05/05 19:26:26;;;;;;;;;;;;;;;16.03;70.04;101265.16;8335527;28;20074;-62
2022/05/05 19:30:27;;;;;;;14.00;7.20;;;;;;;15.93;71.05;101261.66;8327455;28;19956;-61